createdAt,value
2023-03-12T00:02:28.360Z,72.5
2023-03-12T00:05:16.113Z,72.6
2023-03-12T00:08:03.769Z,72.8
2023-03-12T00:10:51.418Z,73
2023-03-12T00:13:39.102Z,73.3
2023-03-12T00:16:27.059Z,73.3
2023-03-12T00:19:14.650Z,73
2023-03-12T00:22:02.214Z,73
2023-03-12T00:24:49.897Z,72.9
2023-03-12T00:27:37.554Z,72.9
2023-03-12T00:30:25.233Z,73
2023-03-12T00:33:13.013Z,73
2023-03-12T00:36:00.894Z,73.1
2023-03-12T00:38:48.503Z,73.2
2023-03-12T00:41:36.059Z,73.2
2023-03-12T00:44:23.702Z,73.2
2023-03-12T00:47:11.623Z,73.2
2023-03-12T00:50:01.067Z,73.2
2023-03-12T00:52:48.797Z,73.2
2023-03-12T00:55:36.510Z,73.2
2023-03-12T00:58:24.156Z,73.3
2023-03-12T01:01:12.413Z,73.4
2023-03-12T01:04:00.343Z,73.4
2023-03-12T01:06:48.129Z,73.5
2023-03-12T01:09:35.938Z,73.5
2023-03-12T01:12:23.524Z,73.5
2023-03-12T01:15:11.366Z,73.5
2023-03-12T01:17:59.234Z,73.6
2023-03-12T01:20:47.051Z,73.6
2023-03-12T01:23:34.831Z,73.5
2023-03-12T01:26:22.690Z,73.4
2023-03-12T01:29:10.522Z,73.2
2023-03-12T01:31:58.256Z,73.2
2023-03-12T01:34:45.755Z,73.1
2023-03-12T01:37:33.466Z,73
2023-03-12T01:40:21.284Z,72.9
2023-03-12T01:43:09.028Z,72.9
2023-03-12T01:45:56.894Z,72.8
2023-03-12T01:48:44.795Z,72.8
2023-03-12T01:51:32.482Z,72.8
2023-03-12T01:54:20.234Z,72.7
2023-03-12T01:57:08.039Z,72.7
2023-03-12T01:59:55.878Z,72.8
2023-03-12T02:02:43.759Z,72.8
2023-03-12T02:05:31.498Z,72.8
2023-03-12T02:08:19.338Z,72.7
2023-03-12T02:11:07.172Z,72.6
2023-03-12T02:13:54.939Z,72.5
2023-03-12T02:16:43.004Z,72.5
2023-03-12T02:19:30.714Z,72.5
2023-03-12T02:22:18.449Z,72.6
2023-03-12T02:25:06.030Z,72.7
2023-03-12T02:27:53.832Z,72.7
2023-03-12T02:30:41.671Z,72.8
2023-03-12T02:33:29.515Z,72.8
2023-03-12T02:36:17.423Z,72.8
2023-03-12T02:39:05.196Z,72.8
2023-03-12T02:41:53.010Z,73
2023-03-12T02:44:40.775Z,72.9
2023-03-12T02:47:28.684Z,72.9
2023-03-12T02:50:16.388Z,72.8
2023-03-12T02:53:04.184Z,72.9
2023-03-12T02:55:52.298Z,73
2023-03-12T02:58:40.092Z,73.1
2023-03-12T03:01:28.003Z,73.2
2023-03-12T03:04:16.008Z,73.3
2023-03-12T03:07:03.738Z,73.3
2023-03-12T03:09:51.392Z,73.3
2023-03-12T03:12:39.055Z,73.3
2023-03-12T03:15:26.820Z,73.4
2023-03-12T03:18:14.554Z,73.4
2023-03-12T03:21:02.438Z,73.4
2023-03-12T03:23:50.167Z,73.4
2023-03-12T03:26:37.777Z,73.6
2023-03-12T03:29:25.403Z,73.6
2023-03-12T03:32:13.278Z,73.7
2023-03-12T03:35:00.986Z,73.7
2023-03-12T03:37:48.743Z,73.7
2023-03-12T03:40:36.562Z,73.8
2023-03-12T03:43:24.287Z,73.8
2023-03-12T03:46:12.346Z,74
2023-03-12T03:49:00.090Z,73.9
2023-03-12T03:51:47.834Z,73.9
2023-03-12T03:54:35.786Z,73.8
2023-03-12T03:57:23.636Z,73.7
2023-03-12T04:00:11.393Z,73.6
2023-03-12T04:02:59.025Z,73.6
2023-03-12T04:05:47.022Z,73.6
2023-03-12T04:08:34.825Z,73.6
2023-03-12T04:11:22.686Z,73.5
2023-03-12T04:14:10.468Z,73.5
2023-03-12T04:16:58.235Z,73.5
2023-03-12T04:19:46.005Z,73.5
2023-03-12T04:22:33.631Z,73.5
2023-03-12T04:25:21.414Z,73.5
2023-03-12T04:28:09.274Z,73.5
2023-03-12T04:30:57.191Z,73.5
2023-03-12T04:33:45.018Z,73.4
2023-03-12T04:36:32.907Z,73.5
2023-03-12T04:39:20.662Z,73.4
2023-03-12T04:42:08.458Z,73.4
2023-03-12T04:44:56.296Z,73.4
2023-03-12T04:47:44.122Z,73.4
2023-03-12T04:50:31.880Z,73.4
2023-03-12T04:53:19.635Z,73.4
2023-03-12T04:56:07.349Z,73.4
2023-03-12T04:58:55.442Z,73.5
2023-03-12T05:01:43.252Z,73.6
2023-03-12T05:04:33.896Z,73.6
2023-03-12T05:07:21.601Z,73.7
2023-03-12T05:10:09.492Z,73.7
2023-03-12T05:12:57.168Z,73.8
2023-03-12T05:15:45.001Z,73.8
2023-03-12T05:18:32.823Z,74
2023-03-12T05:21:20.704Z,74
2023-03-12T05:24:08.577Z,74
2023-03-12T05:26:56.490Z,74.2
2023-03-12T05:29:44.151Z,74.5
2023-03-12T05:32:31.950Z,74.5
2023-03-12T05:35:19.917Z,74.8
2023-03-12T05:38:07.726Z,75.1
2023-03-12T05:40:55.419Z,75.5
2023-03-12T05:43:43.159Z,75.4
2023-03-12T05:46:30.895Z,75.4
2023-03-12T05:49:18.706Z,76.1
2023-03-12T05:52:06.616Z,76.7
2023-03-12T05:54:54.390Z,77.1
2023-03-12T05:57:42.098Z,77.6
2023-03-12T06:00:30.008Z,77.3
2023-03-12T06:03:17.889Z,78.5
2023-03-12T06:06:05.831Z,78.5
2023-03-12T06:08:53.712Z,79.6
2023-03-12T06:11:41.556Z,79.2
2023-03-12T06:14:29.280Z,79
2023-03-12T06:17:17.255Z,79.4
2023-03-12T06:20:05.024Z,79.5
2023-03-12T06:22:52.975Z,79.5
2023-03-12T06:25:40.822Z,79.3
2023-03-12T06:28:28.490Z,79.5
2023-03-12T06:31:16.361Z,79.7
2023-03-12T06:34:04.477Z,79.8
2023-03-12T06:36:52.345Z,79.5
2023-03-12T06:39:40.072Z,79.6
2023-03-12T06:42:27.978Z,80.2
2023-03-12T06:45:15.751Z,79.7
2023-03-12T06:48:03.652Z,80.2
2023-03-12T06:50:51.595Z,80.9
2023-03-12T06:53:42.762Z,80.7
2023-03-12T06:56:30.712Z,80.8
2023-03-12T06:59:18.590Z,81
2023-03-12T07:02:06.594Z,81.2
2023-03-12T07:04:54.678Z,82.8
2023-03-12T07:07:42.614Z,82.7
2023-03-12T07:10:30.322Z,83.2
2023-03-12T07:13:18.181Z,83.7
2023-03-12T07:16:06.254Z,84.6
2023-03-12T07:18:54.156Z,86
2023-03-12T07:21:41.945Z,86.2
2023-03-12T07:24:29.698Z,86.7
2023-03-12T07:27:17.462Z,86.7
2023-03-12T07:30:05.192Z,86.4
2023-03-12T07:32:53.126Z,87.1
2023-03-12T07:35:41.194Z,87.3
2023-03-12T07:38:30.178Z,87.9
2023-03-12T07:41:18.114Z,87.2
2023-03-12T07:44:06.316Z,87.2
2023-03-12T07:46:54.592Z,87
2023-03-12T07:49:42.787Z,86.7
2023-03-12T07:52:30.986Z,86.7
2023-03-12T07:55:19.190Z,87.9
2023-03-12T07:58:07.525Z,88.7
2023-03-12T08:00:55.506Z,88.7
2023-03-12T08:03:44.142Z,88.3
2023-03-12T08:06:32.131Z,88
2023-03-12T08:09:20.091Z,88
2023-03-12T08:12:08.146Z,87.9
2023-03-12T08:14:56.011Z,88
2023-03-12T08:17:44.389Z,88
2023-03-12T08:20:32.349Z,88.3
2023-03-12T08:23:20.467Z,88.7
2023-03-12T08:26:08.422Z,89.1
2023-03-12T08:28:56.151Z,88.8
2023-03-12T08:32:05.162Z,88.7
2023-03-12T08:34:53.223Z,89.1
2023-03-12T08:37:40.963Z,89.2
2023-03-12T08:40:28.933Z,90
2023-03-12T08:43:16.778Z,89.8
2023-03-12T08:46:04.786Z,90.6
2023-03-12T08:48:52.807Z,91.2
2023-03-12T08:51:40.590Z,91.6
2023-03-12T08:54:28.540Z,91.6
2023-03-12T08:57:16.520Z,92.3
2023-03-12T09:00:04.432Z,92.1
2023-03-12T09:02:52.357Z,91.8
2023-03-12T09:05:40.148Z,92.6
2023-03-12T09:08:27.914Z,93.2
2023-03-12T09:11:15.792Z,93.7
2023-03-12T09:15:05.033Z,93.6
2023-03-12T09:17:53.104Z,94
2023-03-12T09:20:40.841Z,94.7
2023-03-12T09:23:28.699Z,95.2
2023-03-12T09:26:16.681Z,96
2023-03-12T09:29:04.607Z,96.9
2023-03-12T09:31:52.554Z,97.3
2023-03-12T09:34:40.473Z,97.1
2023-03-12T09:37:28.509Z,97
2023-03-12T09:40:16.437Z,97.7
2023-03-12T09:43:04.172Z,97.9
2023-03-12T09:45:52.309Z,97.9
2023-03-12T09:48:40.334Z,98.2
2023-03-12T09:51:28.243Z,99.1
2023-03-12T09:54:15.972Z,99.1
2023-03-12T09:57:03.810Z,99.3
2023-03-12T09:59:51.591Z,99.4
2023-03-12T10:02:39.447Z,99.2
2023-03-12T10:05:28.804Z,99.3
2023-03-12T10:08:31.816Z,99.1
2023-03-12T10:11:20.182Z,99.3
2023-03-12T10:14:08.084Z,99.2
2023-03-12T10:16:55.877Z,99.5
2023-03-12T10:19:43.750Z,99.5
2023-03-12T10:22:31.564Z,99.5
2023-03-12T10:25:19.504Z,99.8
2023-03-12T10:28:07.338Z,99.9
2023-03-12T10:30:55.310Z,99.9
2023-03-12T10:33:42.962Z,99.9
2023-03-12T10:36:30.754Z,99.9
2023-03-12T10:39:18.612Z,99.9
2023-03-12T10:42:06.458Z,99.9
2023-03-12T10:44:54.167Z,99.9
2023-03-12T10:47:41.923Z,99.9
2023-03-12T10:50:29.627Z,99.9
2023-03-12T10:53:17.468Z,99.9
2023-03-12T10:56:05.251Z,99.9
2023-03-12T10:58:53.143Z,99.9
2023-03-12T11:01:40.873Z,99.9
2023-03-12T11:04:30.719Z,99.9
2023-03-12T11:07:18.501Z,99.9
2023-03-12T11:10:06.394Z,99.9
2023-03-12T11:12:54.250Z,99.9
2023-03-12T11:15:42.282Z,99.9
2023-03-12T11:18:30.045Z,99.9
2023-03-12T11:21:17.927Z,99.9
2023-03-12T11:24:05.680Z,99.9
2023-03-12T11:26:53.604Z,99.9
2023-03-12T11:29:41.886Z,99.9
2023-03-12T11:32:29.866Z,99.9
2023-03-12T11:35:17.984Z,99.9
2023-03-12T11:38:08.776Z,99.9
2023-03-12T11:40:56.558Z,99.9
2023-03-12T11:43:44.653Z,99.9
2023-03-12T11:46:32.882Z,99.9
2023-03-12T11:49:20.890Z,99.9
2023-03-12T11:52:08.762Z,99.9
2023-03-12T11:54:56.597Z,99.9
2023-03-12T11:57:44.434Z,99.9
2023-03-12T12:00:32.269Z,99.9
2023-03-12T12:03:20.503Z,99.9
2023-03-12T12:06:08.455Z,99.9
2023-03-12T12:08:56.132Z,99.9
2023-03-12T12:11:43.912Z,99.9
2023-03-12T12:14:31.646Z,99.9
2023-03-12T12:17:19.373Z,99.9
2023-03-12T12:20:07.323Z,99.9
2023-03-12T12:22:55.739Z,99.9
2023-03-12T12:25:43.880Z,99.9
2023-03-12T12:28:31.660Z,99.9
2023-03-12T12:31:19.676Z,99.9
2023-03-12T12:34:07.663Z,99.9
2023-03-12T12:36:55.425Z,99.9
2023-03-12T12:39:47.082Z,99.9
2023-03-12T12:42:34.864Z,99.9
2023-03-12T12:45:22.689Z,99.9
2023-03-12T12:48:10.421Z,99.9
2023-03-12T12:50:58.310Z,99.9
2023-03-12T12:53:46.215Z,99.9
2023-03-12T12:56:33.925Z,99.9
2023-03-12T12:59:21.580Z,99.9
2023-03-12T13:02:09.390Z,99.9
2023-03-12T13:04:57.224Z,99.9
2023-03-12T13:07:47.107Z,99.9
2023-03-12T13:10:34.869Z,96.8
2023-03-12T13:13:22.522Z,96.2
2023-03-12T13:16:10.420Z,96.4
2023-03-12T13:18:58.248Z,96.1
2023-03-12T13:21:45.821Z,97.1
2023-03-12T13:24:33.668Z,97.2
2023-03-12T13:27:21.423Z,96.3
2023-03-12T13:30:09.187Z,96.5
2023-03-12T13:32:57.199Z,95.8
2023-03-12T13:35:45.026Z,95.5
2023-03-12T13:38:32.772Z,94.2
2023-03-12T13:41:20.658Z,93.3
2023-03-12T13:44:08.526Z,93
2023-03-12T13:46:56.441Z,93.2
2023-03-12T13:49:44.159Z,92.8
2023-03-12T13:52:31.876Z,92.2
2023-03-12T13:55:19.576Z,92
2023-03-12T13:58:07.538Z,91
2023-03-12T14:00:55.400Z,91
2023-03-12T14:03:43.075Z,90.4
2023-03-12T14:06:30.865Z,90.1
2023-03-12T14:09:18.588Z,89.5
2023-03-12T14:12:06.556Z,89
2023-03-12T14:14:54.276Z,89
2023-03-12T14:17:42.022Z,88.9
2023-03-12T14:20:29.834Z,88.9
2023-03-12T14:23:17.675Z,89
2023-03-12T14:26:05.545Z,89
2023-03-12T14:28:53.279Z,89.1
2023-03-12T14:31:41.490Z,89.5
2023-03-12T14:34:29.411Z,89.4
2023-03-12T14:37:17.293Z,89.4
2023-03-12T14:40:05.079Z,89.4
2023-03-12T14:42:52.911Z,89.5
2023-03-12T14:45:40.632Z,89.7
2023-03-12T14:48:28.419Z,86
2023-03-12T14:51:16.359Z,85.8
2023-03-12T14:54:04.301Z,85.1
2023-03-12T14:56:52.033Z,85.2
2023-03-12T14:59:39.770Z,83.9
2023-03-12T15:02:27.624Z,83.2
2023-03-12T15:05:15.572Z,82.7
2023-03-12T15:08:03.369Z,81.9
2023-03-12T15:10:51.093Z,82.2
2023-03-12T15:13:38.935Z,81.1
2023-03-12T15:16:26.943Z,81.8
2023-03-12T15:19:14.724Z,80.9
2023-03-12T15:22:02.351Z,81.5
2023-03-12T15:24:50.156Z,81.7
2023-03-12T15:27:37.899Z,80.6
2023-03-12T15:30:25.555Z,80
2023-03-12T15:33:13.567Z,80.2
2023-03-12T15:36:02.296Z,79.4
2023-03-12T15:38:50.359Z,78.9
2023-03-12T15:41:38.245Z,77.9
2023-03-12T15:44:25.902Z,77.6
2023-03-12T15:47:13.637Z,76.5
2023-03-12T15:50:01.424Z,77.6
2023-03-12T15:52:49.019Z,77.2
2023-03-12T15:55:36.804Z,77.4
2023-03-12T15:58:24.612Z,77.4
2023-03-12T16:01:12.882Z,77.2
2023-03-12T16:04:00.669Z,76.4
2023-03-12T16:06:48.504Z,75.9
2023-03-12T16:09:36.187Z,76.4
2023-03-12T16:12:24.019Z,76.8
2023-03-12T16:15:11.831Z,76.1
2023-03-12T16:17:59.735Z,75.8
2023-03-12T16:20:47.729Z,75
2023-03-12T16:23:35.662Z,75.3
2023-03-12T16:26:23.351Z,74.4
2023-03-12T16:29:11.073Z,74.4
2023-03-12T16:31:59.080Z,74.8
2023-03-12T16:34:46.829Z,75.1
2023-03-12T16:37:34.435Z,75
2023-03-12T16:41:10.331Z,74.3
2023-03-12T16:43:58.167Z,74.1
2023-03-12T16:46:46.201Z,74.8
2023-03-12T16:49:34.028Z,74.9
2023-03-12T16:52:21.850Z,74.5
2023-03-12T16:55:09.550Z,74.5
2023-03-12T16:57:57.826Z,74.8
2023-03-12T17:00:45.587Z,74.8
2023-03-12T17:03:36.748Z,74.7
2023-03-12T17:06:26.038Z,75
2023-03-12T17:09:13.796Z,74.8
2023-03-12T17:12:01.775Z,75.1
2023-03-12T17:14:49.462Z,75
2023-03-12T17:17:37.198Z,75
2023-03-12T17:20:25.310Z,75.3
2023-03-12T17:23:13.072Z,75.3
2023-03-12T17:26:00.809Z,75.4
2023-03-12T17:28:48.532Z,75.3
2023-03-12T17:31:36.639Z,75.5
2023-03-12T17:34:24.366Z,75.7
2023-03-12T17:37:12.185Z,75.8
2023-03-12T17:39:59.946Z,75.9
2023-03-12T17:42:47.748Z,76
2023-03-12T17:45:35.437Z,76.2
2023-03-12T17:48:23.240Z,76.4
2023-03-12T17:51:10.998Z,76.5
2023-03-12T17:53:58.942Z,76.6
2023-03-12T17:56:46.718Z,76.6
2023-03-12T17:59:34.564Z,76.6
2023-03-12T18:02:22.285Z,76.7
2023-03-12T18:05:10.336Z,76.5
2023-03-12T18:07:58.167Z,76.5
2023-03-12T18:10:45.697Z,76.5
2023-03-12T18:13:33.555Z,76.5
2023-03-12T18:16:21.785Z,76.5
2023-03-12T18:19:09.698Z,76.4
2023-03-12T18:21:57.431Z,76.4
2023-03-12T18:24:45.215Z,76.5
2023-03-12T18:27:32.962Z,76.5
2023-03-12T18:30:20.967Z,76.5
2023-03-12T18:33:08.990Z,76.6
2023-03-12T18:35:56.897Z,76.5
2023-03-12T18:38:44.734Z,76.5
2023-03-12T18:41:32.587Z,76.6
2023-03-12T18:44:20.371Z,76.6
2023-03-12T18:47:08.279Z,76.7
2023-03-12T18:49:56.193Z,76.7
2023-03-12T18:52:43.791Z,76.7
2023-03-12T18:55:31.503Z,76.8
2023-03-12T18:58:19.201Z,76.8
2023-03-12T19:01:07.017Z,76.8
2023-03-12T19:03:54.948Z,76.8
2023-03-12T19:06:51.939Z,76.9
2023-03-12T19:09:39.708Z,76.9
2023-03-12T19:12:27.255Z,77
2023-03-12T19:15:14.945Z,77
2023-03-12T19:18:02.828Z,77.1
2023-03-12T19:20:50.690Z,77.1
2023-03-12T19:23:38.600Z,77
2023-03-12T19:26:26.439Z,77
2023-03-12T19:29:14.378Z,77
2023-03-12T19:32:02.158Z,77
2023-03-12T19:34:52.559Z,77.2
2023-03-12T19:37:40.466Z,77.1
2023-03-12T19:40:28.269Z,77.2
2023-03-12T19:43:15.897Z,77.2
2023-03-12T19:46:03.915Z,77.2
2023-03-12T19:48:51.620Z,77.2
2023-03-12T19:51:39.553Z,77.3
2023-03-12T19:54:27.438Z,77.3
2023-03-12T19:57:15.082Z,77.3
2023-03-12T20:00:02.671Z,77.5
2023-03-12T20:02:51.015Z,77.6
2023-03-12T20:05:38.827Z,77.9
2023-03-12T20:08:26.412Z,78
2023-03-12T20:11:14.266Z,78.2
2023-03-12T20:14:02.171Z,78.3
2023-03-12T20:16:50.309Z,78.4
2023-03-12T20:19:38.042Z,78.4
2023-03-12T20:22:25.728Z,78.5
2023-03-12T20:25:13.430Z,78.5
2023-03-12T20:28:01.167Z,78.7
2023-03-12T20:30:48.982Z,78.8
2023-03-12T20:33:36.565Z,78.9
2023-03-12T20:36:24.481Z,79.1
2023-03-12T20:39:12.233Z,79
2023-03-12T20:42:00.135Z,79.1
2023-03-12T20:44:47.858Z,79.2
2023-03-12T20:47:35.670Z,79.3
2023-03-12T20:50:23.321Z,79.4
2023-03-12T20:53:11.294Z,79.4
2023-03-12T20:55:58.942Z,79.4
2023-03-12T20:58:47.014Z,79.5
2023-03-12T21:01:35.186Z,79.7
2023-03-12T21:04:23.298Z,79.7
2023-03-12T21:07:11.231Z,79.7
2023-03-12T21:09:59.173Z,79.8
2023-03-12T21:12:47.004Z,79.8
2023-03-12T21:15:34.964Z,80
2023-03-12T21:18:22.801Z,80
2023-03-12T21:21:10.916Z,80
2023-03-12T21:23:58.877Z,80.1
2023-03-12T21:26:46.808Z,80.2
2023-03-12T21:29:34.529Z,80.2
2023-03-12T21:32:22.628Z,80.3
2023-03-12T21:35:10.725Z,80.3
2023-03-12T21:37:58.483Z,80.3
2023-03-12T21:40:46.275Z,80.3
2023-03-12T21:43:34.152Z,80.3
2023-03-12T21:46:22.100Z,80.3
2023-03-12T21:49:10.243Z,80.4
2023-03-12T21:51:58.251Z,80.4
2023-03-12T21:54:46.308Z,80.4
2023-03-12T21:57:34.041Z,80.3
2023-03-12T22:00:21.770Z,80.3
2023-03-12T22:03:09.403Z,80.3
2023-03-12T22:05:57.287Z,80.4
2023-03-12T22:08:45.277Z,80.4
2023-03-12T22:11:33.111Z,80.4
2023-03-12T22:14:20.841Z,80.5
2023-03-12T22:17:08.680Z,80.5
2023-03-12T22:19:56.460Z,80.5
2023-03-12T22:22:44.364Z,80.5
2023-03-12T22:25:32.256Z,80.5
2023-03-12T22:28:20.070Z,80.5
2023-03-12T22:31:07.976Z,80.4
2023-03-12T22:33:55.728Z,80.3
2023-03-12T22:36:43.665Z,80.2
2023-03-12T22:39:31.398Z,80
2023-03-12T22:42:19.226Z,79.8
2023-03-12T22:45:07.064Z,79.5
2023-03-12T22:47:54.795Z,79.4
2023-03-12T22:50:42.631Z,79.3
2023-03-12T22:53:30.413Z,79.2
2023-03-12T22:56:18.299Z,79.1
2023-03-12T22:59:06.076Z,79.2
2023-03-12T23:01:54.163Z,79.1
2023-03-12T23:04:42.221Z,79.1
2023-03-12T23:07:42.116Z,78.9
2023-03-12T23:10:29.910Z,78.9
2023-03-12T23:13:17.673Z,78.9
2023-03-12T23:16:10.078Z,78.9
2023-03-12T23:18:57.867Z,79
2023-03-12T23:21:45.512Z,79.1
2023-03-12T23:24:33.362Z,79.2
2023-03-12T23:27:21.222Z,79.2
2023-03-12T23:30:09.008Z,79.3
2023-03-12T23:32:57.087Z,79.4
2023-03-12T23:35:45.754Z,79.3
2023-03-12T23:38:37.555Z,79.5
2023-03-12T23:41:25.473Z,79.5
2023-03-12T23:44:13.292Z,79.6
2023-03-12T23:47:01.133Z,79.5
2023-03-12T23:49:49.090Z,79.6
2023-03-12T23:52:36.854Z,79.6
2023-03-12T23:55:24.500Z,79.7
2023-03-12T23:58:12.263Z,79.9
